createdAt,value
2023-02-19T00:01:28.828Z,98.43
2023-02-19T00:04:04.245Z,98.02
2023-02-19T00:06:33.383Z,97.81
2023-02-19T00:09:00.536Z,99.28
2023-02-19T00:11:31.099Z,99.94
2023-02-19T00:13:59.778Z,99.23
2023-02-19T00:16:29.558Z,100.00
2023-02-19T00:18:57.730Z,99.28
2023-02-19T00:21:25.105Z,98.55
2023-02-19T00:23:54.082Z,97.97
2023-02-19T00:26:21.535Z,98.51
2023-02-19T00:28:50.149Z,99.21
2023-02-19T00:31:18.988Z,99.46
2023-02-19T00:33:47.223Z,100.00
2023-02-19T00:36:14.815Z,100.00
2023-02-19T00:38:42.981Z,100.00
2023-02-19T00:41:20.163Z,100.00
2023-02-19T00:43:59.157Z,100.00
2023-02-19T00:46:28.900Z,100.00
2023-02-19T00:48:57.044Z,100.00
2023-02-19T00:51:26.864Z,100.00
2023-02-19T00:53:53.583Z,100.00
2023-02-19T00:56:20.898Z,100.00
2023-02-19T00:58:47.979Z,100.00
2023-02-19T01:01:15.996Z,100.00
2023-02-19T01:03:42.690Z,100.00
2023-02-19T01:06:11.514Z,100.00
2023-02-19T01:08:38.122Z,100.00
2023-02-19T01:11:06.378Z,100.00
2023-02-19T01:13:34.058Z,100.00
2023-02-19T01:16:04.575Z,100.00
2023-02-19T01:18:32.346Z,100.00
2023-02-19T01:20:59.289Z,100.00
2023-02-19T01:23:26.407Z,100.00
2023-02-19T01:25:53.357Z,100.00
2023-02-19T01:28:20.125Z,100.00
2023-02-19T01:30:46.812Z,100.00
2023-02-19T01:33:13.946Z,100.00
2023-02-19T01:35:40.636Z,100.00
2023-02-19T01:38:08.447Z,100.00
2023-02-19T01:40:35.669Z,100.00
2023-02-19T01:43:03.684Z,100.00
2023-02-19T01:45:33.114Z,100.00
2023-02-19T01:48:06.938Z,100.00
2023-02-19T01:50:39.082Z,100.00
2023-02-19T01:53:08.518Z,100.00
2023-02-19T01:55:35.952Z,100.00
2023-02-19T01:58:04.238Z,100.00
2023-02-19T02:00:33.196Z,100.00
2023-02-19T02:03:00.945Z,100.00
2023-02-19T02:06:02.433Z,100.00
2023-02-19T02:08:50.084Z,100.00
2023-02-19T02:11:20.936Z,100.00
2023-02-19T02:13:48.819Z,100.00
2023-02-19T02:16:23.353Z,100.00
2023-02-19T02:18:56.292Z,99.95
2023-02-19T02:21:28.822Z,100.00
2023-02-19T02:24:04.606Z,100.00
2023-02-19T02:26:37.772Z,100.00
2023-02-19T02:29:19.316Z,100.00
2023-02-19T02:31:57.048Z,99.83
2023-02-19T02:34:33.738Z,99.88
2023-02-19T02:37:00.620Z,99.50
2023-02-19T02:39:30.493Z,98.80
2023-02-19T02:42:18.275Z,99.24
2023-02-19T02:45:13.967Z,99.17
2023-02-19T02:47:53.289Z,100.00
2023-02-19T02:50:26.331Z,100.00
2023-02-19T02:53:18.280Z,100.00
2023-02-19T02:55:48.058Z,99.66
2023-02-19T02:58:16.930Z,99.45
2023-02-19T03:01:08.493Z,100.00
2023-02-19T03:03:38.471Z,100.00
2023-02-19T03:06:08.707Z,100.00
2023-02-19T03:08:46.129Z,100.00
2023-02-19T03:11:32.962Z,100.00
2023-02-19T03:14:28.031Z,100.00
2023-02-19T03:17:25.190Z,100.00
2023-02-19T03:19:56.208Z,100.00
2023-02-19T03:22:27.943Z,100.00
2023-02-19T03:25:19.074Z,100.00
2023-02-19T03:27:49.434Z,100.00
2023-02-19T03:30:22.394Z,100.00
2023-02-19T03:32:54.718Z,100.00
2023-02-19T03:35:26.241Z,100.00
2023-02-19T03:38:06.809Z,100.00
2023-02-19T03:41:03.616Z,100.00
2023-02-19T03:43:54.390Z,100.00
2023-02-19T03:46:23.362Z,100.00
2023-02-19T03:48:53.298Z,100.00
2023-02-19T03:52:07.239Z,100.00
2023-02-19T03:55:01.136Z,100.00
2023-02-19T03:57:55.720Z,100.00
2023-02-19T04:00:22.793Z,100.00
2023-02-19T04:02:56.469Z,100.00
2023-02-19T04:05:27.418Z,100.00
2023-02-19T04:07:58.360Z,100.00
2023-02-19T04:10:32.202Z,100.00
2023-02-19T04:13:07.665Z,100.00
2023-02-19T04:15:36.210Z,100.00
2023-02-19T04:18:07.740Z,100.00
2023-02-19T04:20:39.365Z,100.00
2023-02-19T04:23:06.527Z,100.00
2023-02-19T04:25:34.467Z,100.00
2023-02-19T04:28:02.529Z,100.00
2023-02-19T04:30:29.346Z,100.00
2023-02-19T04:32:56.096Z,100.00
2023-02-19T04:35:22.637Z,100.00
2023-02-19T04:37:49.420Z,100.00
2023-02-19T04:40:16.181Z,100.00
2023-02-19T04:42:42.985Z,100.00
2023-02-19T04:45:09.568Z,100.00
2023-02-19T04:47:36.128Z,100.00
2023-02-19T04:50:03.164Z,100.00
2023-02-19T04:52:30.093Z,100.00
2023-02-19T04:54:56.847Z,100.00
2023-02-19T04:57:23.710Z,100.00
2023-02-19T04:59:50.398Z,100.00
2023-02-19T05:02:16.945Z,100.00
2023-02-19T05:04:43.756Z,100.00
2023-02-19T05:07:10.447Z,100.00
2023-02-19T05:09:37.162Z,100.00
2023-02-19T05:12:04.020Z,100.00
2023-02-19T05:14:30.819Z,100.00
2023-02-19T05:16:57.402Z,100.00
2023-02-19T05:19:23.898Z,100.00
2023-02-19T05:21:50.718Z,100.00
2023-02-19T05:24:17.483Z,100.00
2023-02-19T05:26:45.424Z,100.00
2023-02-19T05:29:12.225Z,100.00
2023-02-19T05:31:39.012Z,100.00
2023-02-19T05:34:05.553Z,100.00
2023-02-19T05:36:32.499Z,100.00
2023-02-19T05:38:59.221Z,100.00
2023-02-19T05:41:28.798Z,100.00
2023-02-19T05:43:57.350Z,100.00
2023-02-19T05:46:27.195Z,100.00
2023-02-19T05:48:54.150Z,100.00
2023-02-19T05:51:23.930Z,100.00
2023-02-19T05:53:50.923Z,100.00
2023-02-19T05:56:34.665Z,100.00
2023-02-19T05:59:06.506Z,100.00
2023-02-19T06:01:33.715Z,100.00
2023-02-19T06:04:01.164Z,100.00
2023-02-19T06:06:28.068Z,100.00
2023-02-19T06:08:55.164Z,100.00
2023-02-19T06:11:21.782Z,100.00
2023-02-19T06:13:50.218Z,100.00
2023-02-19T06:16:18.108Z,100.00
2023-02-19T06:18:45.641Z,100.00
2023-02-19T06:21:13.493Z,100.00
2023-02-19T06:23:41.261Z,100.00
2023-02-19T06:26:18.864Z,100.00
2023-02-19T06:28:47.267Z,100.00
2023-02-19T06:31:14.774Z,100.00
2023-02-19T06:33:43.467Z,100.00
2023-02-19T06:36:15.946Z,100.00
2023-02-19T06:38:42.913Z,100.00
2023-02-19T06:41:10.868Z,100.00
2023-02-19T06:43:37.689Z,100.00
2023-02-19T06:46:05.971Z,100.00
2023-02-19T06:48:33.734Z,100.00
2023-02-19T06:51:00.559Z,100.00
2023-02-19T06:53:27.866Z,100.00
2023-02-19T06:55:57.359Z,100.00
2023-02-19T06:58:24.277Z,100.00
2023-02-19T07:00:51.119Z,100.00
2023-02-19T07:03:17.854Z,100.00
2023-02-19T07:05:44.764Z,100.00
2023-02-19T07:08:11.556Z,100.00
2023-02-19T07:10:38.299Z,100.00
2023-02-19T07:13:05.105Z,100.00
2023-02-19T07:15:31.768Z,100.00
2023-02-19T07:17:59.732Z,100.00
2023-02-19T07:20:26.458Z,100.00
2023-02-19T07:22:54.276Z,100.00
2023-02-19T07:25:21.739Z,100.00
2023-02-19T07:27:48.383Z,100.00
2023-02-19T07:30:15.117Z,100.00
2023-02-19T07:32:42.613Z,100.00
2023-02-19T07:35:09.390Z,100.00
2023-02-19T07:37:36.083Z,100.00
2023-02-19T07:40:03.103Z,100.00
2023-02-19T07:42:29.764Z,100.00
2023-02-19T07:44:57.257Z,100.00
2023-02-19T07:47:25.043Z,100.00
2023-02-19T07:49:51.808Z,100.00
2023-02-19T07:52:18.588Z,100.00
2023-02-19T07:54:45.551Z,100.00
2023-02-19T07:57:12.206Z,100.00
2023-02-19T07:59:38.730Z,100.00
2023-02-19T08:02:34.015Z,100.00
2023-02-19T08:05:00.714Z,100.00
2023-02-19T08:07:35.746Z,100.00
2023-02-19T08:10:22.147Z,100.00
2023-02-19T08:13:18.397Z,100.00
2023-02-19T08:15:56.304Z,100.00
2023-02-19T08:18:26.729Z,100.00
2023-02-19T08:20:54.739Z,100.00
2023-02-19T08:23:21.731Z,100.00
2023-02-19T08:25:50.496Z,100.00
2023-02-19T08:28:18.304Z,100.00
2023-02-19T08:30:47.051Z,100.00
2023-02-19T08:33:17.879Z,100.00
2023-02-19T08:35:45.310Z,100.00
2023-02-19T08:38:13.691Z,100.00
2023-02-19T08:40:40.866Z,100.00
2023-02-19T08:43:10.533Z,100.00
2023-02-19T08:45:38.416Z,100.00
2023-02-19T08:48:05.612Z,100.00
2023-02-19T08:50:32.597Z,100.00
2023-02-19T08:53:00.365Z,100.00
2023-02-19T08:55:27.962Z,100.00
2023-02-19T08:57:55.123Z,100.00
2023-02-19T09:00:21.801Z,100.00
2023-02-19T09:02:49.389Z,100.00
2023-02-19T09:05:17.148Z,100.00
2023-02-19T09:07:44.234Z,100.00
2023-02-19T09:10:12.997Z,100.00
2023-02-19T09:12:40.664Z,100.00
2023-02-19T09:15:07.744Z,100.00
2023-02-19T09:17:34.368Z,100.00
2023-02-19T09:20:01.127Z,100.00
2023-02-19T09:22:27.992Z,100.00
2023-02-19T09:24:54.544Z,100.00
2023-02-19T09:27:21.211Z,100.00
2023-02-19T09:29:47.910Z,100.00
2023-02-19T09:32:14.792Z,100.00
2023-02-19T09:34:41.790Z,100.00
2023-02-19T09:37:08.694Z,100.00
2023-02-19T09:39:35.945Z,100.00
2023-02-19T09:42:20.016Z,100.00
2023-02-19T09:44:52.232Z,100.00
2023-02-19T09:47:21.835Z,100.00
2023-02-19T09:49:52.596Z,100.00
2023-02-19T09:52:29.204Z,100.00
2023-02-19T09:54:59.393Z,100.00
2023-02-19T09:57:29.764Z,100.00
2023-02-19T10:00:23.044Z,100.00
2023-02-19T10:03:14.773Z,100.00
2023-02-19T10:05:42.364Z,100.00
2023-02-19T10:08:15.522Z,100.00
2023-02-19T10:10:44.358Z,100.00
2023-02-19T10:13:30.975Z,100.00
2023-02-19T10:16:00.772Z,100.00
2023-02-19T10:18:32.270Z,100.00
2023-02-19T10:20:58.960Z,100.00
2023-02-19T10:23:26.072Z,100.00
2023-02-19T10:26:00.706Z,100.00
2023-02-19T10:28:34.379Z,100.00
2023-02-19T10:31:03.861Z,100.00
2023-02-19T10:33:30.780Z,100.00
2023-02-19T10:36:05.161Z,100.00
2023-02-19T10:38:39.013Z,100.00
2023-02-19T10:41:13.481Z,100.00
2023-02-19T10:43:50.217Z,100.00
2023-02-19T10:46:21.518Z,100.00
2023-02-19T10:48:54.864Z,100.00
2023-02-19T10:51:30.535Z,100.00
2023-02-19T10:54:24.177Z,100.00
2023-02-19T10:56:50.950Z,100.00
2023-02-19T10:59:28.590Z,100.00
2023-02-19T11:02:03.634Z,100.00
2023-02-19T11:04:35.332Z,100.00
2023-02-19T11:07:16.590Z,100.00
2023-02-19T11:09:45.467Z,100.00
2023-02-19T11:12:14.409Z,100.00
2023-02-19T11:14:45.299Z,100.00
2023-02-19T11:17:30.035Z,100.00
2023-02-19T11:20:17.763Z,100.00
2023-02-19T11:22:47.028Z,100.00
2023-02-19T11:25:14.571Z,100.00
2023-02-19T11:28:08.397Z,100.00
2023-02-19T11:30:43.756Z,100.00
2023-02-19T11:33:24.526Z,100.00
2023-02-19T11:35:57.950Z,100.00
2023-02-19T11:38:25.655Z,100.00
2023-02-19T11:40:59.700Z,100.00
2023-02-19T11:43:53.540Z,100.00
2023-02-19T11:46:30.608Z,100.00
2023-02-19T11:49:15.696Z,100.00
2023-02-19T11:52:07.424Z,100.00
2023-02-19T11:55:01.293Z,100.00
2023-02-19T11:57:48.076Z,100.00
2023-02-19T12:00:19.547Z,100.00
2023-02-19T12:02:57.798Z,100.00
2023-02-19T12:05:43.160Z,100.00
2023-02-19T12:08:15.809Z,100.00
2023-02-19T12:11:09.184Z,100.00
2023-02-19T12:13:35.983Z,100.00
2023-02-19T12:16:20.755Z,100.00
2023-02-19T12:19:48.121Z,100.00
2023-02-19T12:22:26.605Z,100.00
2023-02-19T12:25:12.057Z,100.00
2023-02-19T12:28:00.446Z,100.00
2023-02-19T12:30:50.586Z,100.00
2023-02-19T12:33:21.718Z,100.00
2023-02-19T12:36:03.921Z,100.00
2023-02-19T12:38:36.232Z,100.00
2023-02-19T12:41:43.469Z,100.00
2023-02-19T12:44:16.758Z,100.00
2023-02-19T12:46:58.623Z,100.00
2023-02-19T12:49:39.364Z,100.00
2023-02-19T12:52:26.691Z,100.00
2023-02-19T12:55:17.854Z,100.00
2023-02-19T12:57:45.000Z,100.00
2023-02-19T13:00:33.789Z,100.00
2023-02-19T13:03:09.484Z,100.00
2023-02-19T13:05:45.275Z,100.00
2023-02-19T13:08:18.988Z,100.00
2023-02-19T13:11:18.020Z,100.00
2023-02-19T13:14:03.139Z,100.00
2023-02-19T13:16:33.542Z,100.00
2023-02-19T13:19:02.099Z,100.00
2023-02-19T13:21:55.970Z,100.00
2023-02-19T13:24:46.975Z,100.00
2023-02-19T13:27:28.198Z,100.00
2023-02-19T13:29:54.931Z,100.00
2023-02-19T13:32:21.513Z,100.00
2023-02-19T13:34:51.064Z,100.00
2023-02-19T13:37:18.532Z,100.00
2023-02-19T13:39:53.665Z,100.00
2023-02-19T13:42:31.382Z,100.00
2023-02-19T13:44:59.127Z,100.00
2023-02-19T13:48:13.891Z,100.00
2023-02-19T13:50:41.124Z,100.00
2023-02-19T13:53:38.850Z,100.00
2023-02-19T13:56:34.404Z,100.00
2023-02-19T13:59:35.313Z,100.00
2023-02-19T14:02:02.220Z,100.00
2023-02-19T14:04:31.988Z,100.00
2023-02-19T14:07:04.695Z,100.00
2023-02-19T14:09:34.616Z,100.00
2023-02-19T14:12:09.534Z,100.00
2023-02-19T14:14:47.081Z,100.00
2023-02-19T14:17:33.308Z,100.00
2023-02-19T14:20:09.821Z,100.00
2023-02-19T14:22:57.809Z,100.00
2023-02-19T14:25:33.518Z,100.00
2023-02-19T14:28:25.517Z,100.00
2023-02-19T14:30:55.011Z,100.00
2023-02-19T14:33:35.679Z,100.00
2023-02-19T14:36:26.049Z,100.00
2023-02-19T14:38:59.956Z,100.00
2023-02-19T14:41:30.776Z,99.12
2023-02-19T14:44:00.566Z,99.28
2023-02-19T14:46:49.369Z,95.70
2023-02-19T14:49:19.853Z,96.04
2023-02-19T14:51:51.546Z,95.08
2023-02-19T14:54:25.684Z,94.60
2023-02-19T14:56:53.181Z,97.14
2023-02-19T14:59:19.883Z,99.96
2023-02-19T15:01:53.101Z,100.00
2023-02-19T15:04:23.107Z,97.20
2023-02-19T15:06:52.977Z,97.25
2023-02-19T15:09:22.087Z,99.96
2023-02-19T15:11:51.187Z,100.00
2023-02-19T15:14:24.416Z,100.00
2023-02-19T15:16:58.329Z,100.00
2023-02-19T15:19:25.493Z,100.00
2023-02-19T15:21:52.375Z,100.00
2023-02-19T15:24:19.653Z,99.97
2023-02-19T15:26:55.273Z,100.00
2023-02-19T15:29:27.491Z,100.00
2023-02-19T15:31:59.720Z,100.00
2023-02-19T15:34:29.214Z,100.00
2023-02-19T15:37:00.545Z,99.47
2023-02-19T15:39:48.205Z,98.07
2023-02-19T15:42:38.079Z,100.00
2023-02-19T15:45:15.991Z,100.00
2023-02-19T15:47:50.599Z,100.00
2023-02-19T15:50:27.268Z,100.00
2023-02-19T15:53:26.302Z,100.00
2023-02-19T15:56:04.609Z,100.00
2023-02-19T15:58:47.098Z,100.00
2023-02-19T16:01:37.820Z,100.00
2023-02-19T16:04:11.393Z,100.00
2023-02-19T16:06:59.761Z,100.00
2023-02-19T16:09:40.004Z,100.00
2023-02-19T16:12:24.562Z,100.00
2023-02-19T16:14:51.152Z,100.00
2023-02-19T16:17:25.114Z,100.00
2023-02-19T16:19:57.458Z,100.00
2023-02-19T16:22:27.208Z,100.00
2023-02-19T16:24:58.448Z,100.00
2023-02-19T16:27:37.603Z,100.00
2023-02-19T16:30:25.429Z,100.00
2023-02-19T16:33:33.053Z,100.00
2023-02-19T16:36:34.264Z,100.00
2023-02-19T16:39:07.090Z,100.00
2023-02-19T16:41:34.200Z,100.00
2023-02-19T16:44:06.430Z,100.00
2023-02-19T16:46:33.206Z,100.00
2023-02-19T16:49:00.037Z,100.00
2023-02-19T16:51:27.933Z,100.00
2023-02-19T16:53:54.827Z,100.00
2023-02-19T16:56:23.055Z,100.00
2023-02-19T16:58:50.330Z,100.00
2023-02-19T17:01:18.147Z,100.00
2023-02-19T17:03:47.046Z,100.00
2023-02-19T17:06:15.516Z,100.00
2023-02-19T17:08:44.137Z,100.00
2023-02-19T17:11:14.289Z,100.00
2023-02-19T17:13:42.346Z,100.00
2023-02-19T17:16:17.768Z,100.00
2023-02-19T17:18:44.536Z,100.00
2023-02-19T17:21:29.182Z,100.00
2023-02-19T17:23:59.268Z,100.00
2023-02-19T17:26:28.574Z,100.00
2023-02-19T17:29:04.324Z,100.00
2023-02-19T17:31:31.227Z,100.00
2023-02-19T17:33:59.099Z,100.00
2023-02-19T17:36:32.148Z,98.33
2023-02-19T17:39:00.541Z,99.26
2023-02-19T17:41:31.355Z,98.98
2023-02-19T17:44:03.961Z,100.00
2023-02-19T17:46:30.666Z,100.00
2023-02-19T17:48:57.224Z,98.38
2023-02-19T17:51:23.919Z,100.00
2023-02-19T17:53:50.450Z,100.00
2023-02-19T17:56:19.993Z,100.00
2023-02-19T17:58:47.314Z,100.00
2023-02-19T18:01:15.111Z,100.00
2023-02-19T18:03:42.073Z,100.00
2023-02-19T18:06:08.913Z,100.00
2023-02-19T18:08:35.952Z,100.00
2023-02-19T18:11:03.106Z,100.00
2023-02-19T18:13:30.275Z,100.00
2023-02-19T18:15:57.032Z,100.00
2023-02-19T18:18:23.838Z,100.00
2023-02-19T18:20:50.565Z,100.00
2023-02-19T18:23:17.224Z,100.00
2023-02-19T18:25:43.873Z,100.00
2023-02-19T18:28:10.995Z,100.00
2023-02-19T18:30:37.701Z,100.00
2023-02-19T18:33:05.310Z,100.00
2023-02-19T18:35:34.078Z,100.00
2023-02-19T18:38:01.692Z,100.00
2023-02-19T18:40:28.860Z,100.00
2023-02-19T18:42:55.961Z,100.00
2023-02-19T18:45:22.725Z,100.00
2023-02-19T18:47:49.967Z,100.00
2023-02-19T18:50:18.175Z,100.00
2023-02-19T18:52:45.195Z,100.00
2023-02-19T18:55:12.114Z,100.00
2023-02-19T18:57:38.930Z,100.00
2023-02-19T19:00:07.538Z,100.00
2023-02-19T19:02:48.344Z,100.00
2023-02-19T19:05:21.258Z,100.00
2023-02-19T19:07:49.071Z,100.00
2023-02-19T19:10:15.993Z,100.00
2023-02-19T19:12:42.505Z,100.00
2023-02-19T19:15:09.592Z,100.00
2023-02-19T19:17:36.249Z,100.00
2023-02-19T19:20:03.361Z,100.00
2023-02-19T19:22:30.154Z,100.00
2023-02-19T19:24:59.513Z,100.00
2023-02-19T19:27:27.419Z,100.00
2023-02-19T19:29:54.156Z,100.00
2023-02-19T19:32:20.801Z,100.00
2023-02-19T19:34:47.764Z,100.00
2023-02-19T19:37:14.497Z,100.00
2023-02-19T19:39:43.270Z,100.00
2023-02-19T19:42:10.435Z,100.00
2023-02-19T19:44:37.131Z,100.00
2023-02-19T19:47:04.261Z,100.00
2023-02-19T19:49:31.211Z,100.00
2023-02-19T19:52:01.114Z,100.00
2023-02-19T19:54:28.731Z,100.00
2023-02-19T19:56:55.694Z,100.00
2023-02-19T19:59:23.340Z,100.00
2023-02-19T20:01:57.002Z,100.00
2023-02-19T20:04:25.427Z,100.00
2023-02-19T20:06:52.366Z,100.00
2023-02-19T20:09:20.049Z,100.00
2023-02-19T20:11:51.490Z,100.00
2023-02-19T20:14:20.181Z,100.00
2023-02-19T20:16:47.526Z,100.00
2023-02-19T20:19:15.464Z,100.00
2023-02-19T20:21:52.037Z,100.00
2023-02-19T20:24:24.419Z,100.00
2023-02-19T20:26:53.627Z,100.00
2023-02-19T20:29:20.420Z,100.00
2023-02-19T20:31:51.363Z,100.00
2023-02-19T20:34:18.306Z,100.00
2023-02-19T20:36:47.016Z,100.00
2023-02-19T20:39:15.099Z,100.00
2023-02-19T20:41:48.230Z,100.00
2023-02-19T20:44:15.893Z,100.00
2023-02-19T20:46:45.270Z,100.00
2023-02-19T20:49:13.256Z,100.00
2023-02-19T20:51:47.562Z,100.00
2023-02-19T20:54:16.161Z,100.00
2023-02-19T20:56:54.155Z,100.00
2023-02-19T20:59:23.363Z,100.00
2023-02-19T21:01:50.646Z,100.00
2023-02-19T21:04:20.216Z,100.00
2023-02-19T21:06:46.770Z,100.00
2023-02-19T21:09:13.592Z,100.00
2023-02-19T21:11:40.410Z,100.00
2023-02-19T21:14:07.141Z,100.00
2023-02-19T21:16:34.182Z,100.00
2023-02-19T21:19:01.061Z,100.00
2023-02-19T21:21:30.184Z,100.00
2023-02-19T21:23:59.372Z,100.00
2023-02-19T21:26:34.093Z,100.00
2023-02-19T21:29:00.899Z,100.00
2023-02-19T21:31:39.673Z,100.00
2023-02-19T21:34:08.288Z,100.00
2023-02-19T21:36:35.026Z,100.00
2023-02-19T21:39:02.391Z,100.00
2023-02-19T21:41:29.238Z,100.00
2023-02-19T21:43:56.223Z,100.00
2023-02-19T21:46:24.849Z,100.00
2023-02-19T21:48:53.626Z,100.00
2023-02-19T21:51:21.928Z,100.00
2023-02-19T21:53:48.753Z,100.00
2023-02-19T21:56:26.953Z,100.00
2023-02-19T21:58:54.006Z,100.00
2023-02-19T22:01:21.411Z,100.00
2023-02-19T22:03:48.181Z,100.00
2023-02-19T22:06:15.992Z,100.00
2023-02-19T22:08:43.426Z,100.00
2023-02-19T22:11:10.347Z,100.00
2023-02-19T22:13:37.137Z,100.00
2023-02-19T22:16:03.808Z,100.00
2023-02-19T22:18:30.519Z,100.00
2023-02-19T22:20:57.579Z,100.00
2023-02-19T22:23:24.413Z,100.00
2023-02-19T22:25:51.081Z,100.00
2023-02-19T22:28:17.878Z,100.00
2023-02-19T22:30:44.687Z,100.00
2023-02-19T22:33:11.351Z,100.00
2023-02-19T22:35:38.149Z,100.00
2023-02-19T22:38:04.945Z,100.00
2023-02-19T22:40:31.591Z,100.00
2023-02-19T22:42:58.268Z,100.00
2023-02-19T22:45:25.557Z,100.00
2023-02-19T22:47:55.706Z,100.00
2023-02-19T22:50:23.267Z,100.00
2023-02-19T22:52:50.180Z,100.00
2023-02-19T22:55:17.628Z,100.00
2023-02-19T22:57:44.283Z,100.00
2023-02-19T23:00:21.462Z,100.00
2023-02-19T23:02:48.909Z,100.00
2023-02-19T23:05:16.555Z,100.00
2023-02-19T23:07:46.213Z,100.00
2023-02-19T23:10:13.593Z,100.00
2023-02-19T23:12:41.231Z,100.00
2023-02-19T23:15:09.208Z,100.00
2023-02-19T23:17:36.056Z,100.00
2023-02-19T23:20:03.374Z,100.00
2023-02-19T23:22:30.086Z,100.00
2023-02-19T23:24:57.325Z,100.00
2023-02-19T23:27:24.363Z,100.00
2023-02-19T23:29:50.919Z,100.00
2023-02-19T23:32:20.884Z,100.00
2023-02-19T23:34:48.398Z,100.00
2023-02-19T23:37:15.542Z,100.00
2023-02-19T23:39:42.329Z,100.00
2023-02-19T23:42:15.231Z,100.00
2023-02-19T23:44:42.042Z,100.00
2023-02-19T23:47:08.696Z,100.00
2023-02-19T23:49:35.215Z,100.00
2023-02-19T23:52:02.114Z,100.00
2023-02-19T23:54:28.820Z,100.00
2023-02-19T23:56:56.206Z,100.00
2023-02-19T23:59:22.931Z,100.00
